sensor_id;sensor_type;location;lat;lon;timestamp;P1;durP1;ratioP1;P2;durP2;ratioP2
3197;SDS011;1611;49.394;11.136;2023-03-23T00:00:55;6.37;;;3.60;;
3197;SDS011;1611;49.394;11.136;2023-03-23T00:03:23;7.77;;;3.30;;
3197;SDS011;1611;49.394;11.136;2023-03-23T00:05:53;8.33;;;3.90;;
3197;SDS011;1611;49.394;11.136;2023-03-23T00:08:24;4.20;;;3.50;;
3197;SDS011;1611;49.394;11.136;2023-03-23T00:10:52;6.10;;;3.20;;
3197;SDS011;1611;49.394;11.136;2023-03-23T00:13:21;4.73;;;3.87;;
3197;SDS011;1611;49.394;11.136;2023-03-23T00:15:48;4.03;;;3.73;;
3197;SDS011;1611;49.394;11.136;2023-03-23T00:18:17;4.27;;;3.87;;
3197;SDS011;1611;49.394;11.136;2023-03-23T00:20:49;8.03;;;3.30;;
3197;SDS011;1611;49.394;11.136;2023-03-23T00:23:17;4.30;;;3.53;;
3197;SDS011;1611;49.394;11.136;2023-03-23T00:25:46;5.17;;;3.70;;
3197;SDS011;1611;49.394;11.136;2023-03-23T00:28:13;3.67;;;3.37;;
3197;SDS011;1611;49.394;11.136;2023-03-23T00:30:40;5.37;;;4.77;;
3197;SDS011;1611;49.394;11.136;2023-03-23T00:33:09;7.80;;;3.60;;
3197;SDS011;1611;49.394;11.136;2023-03-23T00:35:37;3.93;;;3.40;;
3197;SDS011;1611;49.394;11.136;2023-03-23T00:38:06;4.50;;;3.50;;
3197;SDS011;1611;49.394;11.136;2023-03-23T00:40:33;5.83;;;3.33;;
3197;SDS011;1611;49.394;11.136;2023-03-23T00:43:00;4.03;;;3.67;;
3197;SDS011;1611;49.394;11.136;2023-03-23T00:45:28;9.70;;;4.07;;
3197;SDS011;1611;49.394;11.136;2023-03-23T00:47:55;3.83;;;3.40;;
3197;SDS011;1611;49.394;11.136;2023-03-23T00:50:26;4.43;;;4.03;;
3197;SDS011;1611;49.394;11.136;2023-03-23T00:52:53;4.73;;;3.20;;
3197;SDS011;1611;49.394;11.136;2023-03-23T00:55:23;4.03;;;3.50;;
3197;SDS011;1611;49.394;11.136;2023-03-23T00:57:49;4.13;;;3.73;;
3197;SDS011;1611;49.394;11.136;2023-03-23T01:00:17;7.63;;;3.67;;
3197;SDS011;1611;49.394;11.136;2023-03-23T01:02:45;3.50;;;3.20;;
3197;SDS011;1611;49.394;11.136;2023-03-23T01:05:11;4.33;;;3.37;;
3197;SDS011;1611;49.394;11.136;2023-03-23T01:07:39;3.87;;;3.23;;
3197;SDS011;1611;49.394;11.136;2023-03-23T01:10:07;11.13;;;3.67;;
3197;SDS011;1611;49.394;11.136;2023-03-23T01:12:35;4.70;;;3.50;;
3197;SDS011;1611;49.394;11.136;2023-03-23T01:15:02;3.40;;;3.20;;
3197;SDS011;1611;49.394;11.136;2023-03-23T01:17:29;4.60;;;3.30;;
3197;SDS011;1611;49.394;11.136;2023-03-23T01:19:56;5.40;;;3.50;;
3197;SDS011;1611;49.394;11.136;2023-03-23T01:22:22;3.87;;;3.20;;
3197;SDS011;1611;49.394;11.136;2023-03-23T01:24:50;5.37;;;3.40;;
3197;SDS011;1611;49.394;11.136;2023-03-23T01:27:16;4.93;;;4.00;;
3197;SDS011;1611;49.394;11.136;2023-03-23T01:29:44;3.80;;;3.30;;
3197;SDS011;1611;49.394;11.136;2023-03-23T01:32:11;4.03;;;3.30;;
3197;SDS011;1611;49.394;11.136;2023-03-23T01:34:38;3.93;;;3.10;;
3197;SDS011;1611;49.394;11.136;2023-03-23T01:37:04;3.73;;;3.43;;
3197;SDS011;1611;49.394;11.136;2023-03-23T01:39:31;3.17;;;2.97;;
3197;SDS011;1611;49.394;11.136;2023-03-23T01:41:58;10.83;;;3.90;;
3197;SDS011;1611;49.394;11.136;2023-03-23T01:47:42;2.93;;;2.73;;
3197;SDS011;1611;49.394;11.136;2023-03-23T01:50:09;3.93;;;3.13;;
3197;SDS011;1611;49.394;11.136;2023-03-23T01:52:36;2.30;;;2.13;;
3197;SDS011;1611;49.394;11.136;2023-03-23T01:55:03;3.63;;;2.70;;
3197;SDS011;1611;49.394;11.136;2023-03-23T01:57:31;3.07;;;2.77;;
3197;SDS011;1611;49.394;11.136;2023-03-23T01:59:58;3.50;;;3.17;;
3197;SDS011;1611;49.394;11.136;2023-03-23T02:02:33;3.17;;;2.97;;
3197;SDS011;1611;49.394;11.136;2023-03-23T02:05:07;6.23;;;3.03;;
3197;SDS011;1611;49.394;11.136;2023-03-23T02:07:37;5.93;;;3.53;;
3197;SDS011;1611;49.394;11.136;2023-03-23T02:10:04;2.90;;;2.70;;
3197;SDS011;1611;49.394;11.136;2023-03-23T02:12:32;3.10;;;2.90;;
3197;SDS011;1611;49.394;11.136;2023-03-23T02:14:59;5.13;;;2.70;;
3197;SDS011;1611;49.394;11.136;2023-03-23T02:17:29;7.27;;;3.03;;
3197;SDS011;1611;49.394;11.136;2023-03-23T02:20:17;10.47;;;2.80;;
3197;SDS011;1611;49.394;11.136;2023-03-23T02:23:01;4.43;;;2.87;;
3197;SDS011;1611;49.394;11.136;2023-03-23T02:25:55;5.67;;;2.77;;
3197;SDS011;1611;49.394;11.136;2023-03-23T02:28:29;8.63;;;2.70;;
3197;SDS011;1611;49.394;11.136;2023-03-23T02:31:11;6.40;;;2.50;;
3197;SDS011;1611;49.394;11.136;2023-03-23T02:33:49;3.30;;;3.00;;
3197;SDS011;1611;49.394;11.136;2023-03-23T02:36:22;3.70;;;3.07;;
3197;SDS011;1611;49.394;11.136;2023-03-23T02:38:56;6.20;;;2.33;;
3197;SDS011;1611;49.394;11.136;2023-03-23T02:41:27;9.50;;;2.97;;
3197;SDS011;1611;49.394;11.136;2023-03-23T02:43:57;2.60;;;2.33;;
3197;SDS011;1611;49.394;11.136;2023-03-23T02:46:25;5.30;;;2.60;;
3197;SDS011;1611;49.394;11.136;2023-03-23T02:48:54;8.50;;;2.93;;
3197;SDS011;1611;49.394;11.136;2023-03-23T02:51:23;3.20;;;2.90;;
3197;SDS011;1611;49.394;11.136;2023-03-23T02:53:51;8.53;;;2.53;;
3197;SDS011;1611;49.394;11.136;2023-03-23T02:56:20;4.63;;;2.60;;
3197;SDS011;1611;49.394;11.136;2023-03-23T02:58:52;7.33;;;3.00;;
3197;SDS011;1611;49.394;11.136;2023-03-23T03:04:17;3.33;;;2.40;;
3197;SDS011;1611;49.394;11.136;2023-03-23T03:06:50;3.33;;;3.03;;
3197;SDS011;1611;49.394;11.136;2023-03-23T03:09:26;4.40;;;2.63;;
3197;SDS011;1611;49.394;11.136;2023-03-23T03:12:04;4.30;;;2.93;;
3197;SDS011;1611;49.394;11.136;2023-03-23T03:14:36;3.47;;;2.50;;
3197;SDS011;1611;49.394;11.136;2023-03-23T03:17:10;2.43;;;2.23;;
3197;SDS011;1611;49.394;11.136;2023-03-23T03:19:48;5.17;;;2.40;;
3197;SDS011;1611;49.394;11.136;2023-03-23T03:22:18;2.17;;;1.97;;
3197;SDS011;1611;49.394;11.136;2023-03-23T03:24:47;4.13;;;2.60;;
3197;SDS011;1611;49.394;11.136;2023-03-23T03:27:17;3.53;;;2.30;;
3197;SDS011;1611;49.394;11.136;2023-03-23T03:29:49;4.87;;;2.40;;
3197;SDS011;1611;49.394;11.136;2023-03-23T03:32:20;2.60;;;2.40;;
3197;SDS011;1611;49.394;11.136;2023-03-23T03:34:51;11.63;;;2.60;;
3197;SDS011;1611;49.394;11.136;2023-03-23T03:37:18;2.77;;;2.50;;
3197;SDS011;1611;49.394;11.136;2023-03-23T03:39:45;5.57;;;2.70;;
3197;SDS011;1611;49.394;11.136;2023-03-23T03:42:12;3.13;;;2.57;;
3197;SDS011;1611;49.394;11.136;2023-03-23T03:44:39;4.57;;;2.53;;
3197;SDS011;1611;49.394;11.136;2023-03-23T03:47:06;2.80;;;2.37;;
3197;SDS011;1611;49.394;11.136;2023-03-23T03:49:33;7.23;;;2.23;;
3197;SDS011;1611;49.394;11.136;2023-03-23T03:52:01;2.50;;;1.93;;
3197;SDS011;1611;49.394;11.136;2023-03-23T03:54:28;4.53;;;2.27;;
3197;SDS011;1611;49.394;11.136;2023-03-23T03:56:55;5.40;;;2.50;;
3197;SDS011;1611;49.394;11.136;2023-03-23T03:59:22;9.17;;;1.83;;
3197;SDS011;1611;49.394;11.136;2023-03-23T04:01:50;2.03;;;1.90;;
3197;SDS011;1611;49.394;11.136;2023-03-23T04:04:19;2.03;;;1.93;;
3197;SDS011;1611;49.394;11.136;2023-03-23T04:06:46;8.53;;;2.33;;
3197;SDS011;1611;49.394;11.136;2023-03-23T04:09:15;3.23;;;2.00;;
3197;SDS011;1611;49.394;11.136;2023-03-23T04:11:42;2.10;;;2.00;;
3197;SDS011;1611;49.394;11.136;2023-03-23T04:14:09;2.37;;;2.17;;
3197;SDS011;1611;49.394;11.136;2023-03-23T04:16:36;3.33;;;1.97;;
3197;SDS011;1611;49.394;11.136;2023-03-23T04:19:02;3.37;;;2.13;;
3197;SDS011;1611;49.394;11.136;2023-03-23T04:21:30;2.10;;;1.80;;
3197;SDS011;1611;49.394;11.136;2023-03-23T04:23:57;1.93;;;1.83;;
3197;SDS011;1611;49.394;11.136;2023-03-23T04:26:26;3.97;;;2.10;;
3197;SDS011;1611;49.394;11.136;2023-03-23T04:28:54;1.80;;;1.70;;
3197;SDS011;1611;49.394;11.136;2023-03-23T04:31:23;2.10;;;2.00;;
3197;SDS011;1611;49.394;11.136;2023-03-23T04:33:50;3.53;;;2.07;;
3197;SDS011;1611;49.394;11.136;2023-03-23T04:36:18;4.87;;;2.00;;
3197;SDS011;1611;49.394;11.136;2023-03-23T04:38:47;2.40;;;2.20;;
3197;SDS011;1611;49.394;11.136;2023-03-23T04:41:15;3.57;;;2.07;;
3197;SDS011;1611;49.394;11.136;2023-03-23T04:43:44;2.97;;;1.93;;
3197;SDS011;1611;49.394;11.136;2023-03-23T04:46:10;8.70;;;2.13;;
3197;SDS011;1611;49.394;11.136;2023-03-23T04:48:43;2.63;;;1.63;;
3197;SDS011;1611;49.394;11.136;2023-03-23T04:51:09;2.57;;;2.07;;
3197;SDS011;1611;49.394;11.136;2023-03-23T04:53:37;3.17;;;2.50;;
3197;SDS011;1611;49.394;11.136;2023-03-23T04:56:04;2.13;;;2.03;;
3197;SDS011;1611;49.394;11.136;2023-03-23T04:58:31;4.90;;;1.90;;
3197;SDS011;1611;49.394;11.136;2023-03-23T05:01:00;6.03;;;1.57;;
3197;SDS011;1611;49.394;11.136;2023-03-23T05:03:27;4.70;;;2.07;;
3197;SDS011;1611;49.394;11.136;2023-03-23T05:05:54;2.13;;;1.93;;
3197;SDS011;1611;49.394;11.136;2023-03-23T05:08:21;2.63;;;1.87;;
3197;SDS011;1611;49.394;11.136;2023-03-23T05:10:50;4.53;;;1.97;;
3197;SDS011;1611;49.394;11.136;2023-03-23T05:13:18;3.00;;;1.93;;
3197;SDS011;1611;49.394;11.136;2023-03-23T05:15:45;2.27;;;2.00;;
3197;SDS011;1611;49.394;11.136;2023-03-23T05:18:14;3.10;;;2.20;;
3197;SDS011;1611;49.394;11.136;2023-03-23T05:20:41;2.27;;;2.13;;
3197;SDS011;1611;49.394;11.136;2023-03-23T05:23:08;2.50;;;2.30;;
3197;SDS011;1611;49.394;11.136;2023-03-23T05:25:36;2.67;;;2.07;;
3197;SDS011;1611;49.394;11.136;2023-03-23T05:28:05;2.53;;;2.33;;
3197;SDS011;1611;49.394;11.136;2023-03-23T05:30:32;4.13;;;2.27;;
3197;SDS011;1611;49.394;11.136;2023-03-23T05:32:58;2.60;;;2.13;;
3197;SDS011;1611;49.394;11.136;2023-03-23T05:35:27;5.20;;;2.97;;
3197;SDS011;1611;49.394;11.136;2023-03-23T05:37:54;2.90;;;2.27;;
3197;SDS011;1611;49.394;11.136;2023-03-23T05:40:21;7.03;;;2.50;;
3197;SDS011;1611;49.394;11.136;2023-03-23T05:42:48;5.37;;;2.17;;
3197;SDS011;1611;49.394;11.136;2023-03-23T05:45:15;2.33;;;2.13;;
3197;SDS011;1611;49.394;11.136;2023-03-23T05:47:42;3.13;;;2.53;;
3197;SDS011;1611;49.394;11.136;2023-03-23T05:50:09;5.80;;;2.40;;
3197;SDS011;1611;49.394;11.136;2023-03-23T05:52:38;2.40;;;2.20;;
3197;SDS011;1611;49.394;11.136;2023-03-23T05:55:06;9.93;;;2.10;;
3197;SDS011;1611;49.394;11.136;2023-03-23T05:57:34;9.63;;;3.27;;
3197;SDS011;1611;49.394;11.136;2023-03-23T06:00:01;12.57;;;2.77;;
3197;SDS011;1611;49.394;11.136;2023-03-23T06:02:36;4.97;;;2.47;;
3197;SDS011;1611;49.394;11.136;2023-03-23T06:05:03;8.50;;;2.67;;
3197;SDS011;1611;49.394;11.136;2023-03-23T06:07:32;3.30;;;2.47;;
3197;SDS011;1611;49.394;11.136;2023-03-23T06:10:00;5.70;;;2.53;;
3197;SDS011;1611;49.394;11.136;2023-03-23T06:12:26;5.53;;;3.20;;
3197;SDS011;1611;49.394;11.136;2023-03-23T06:14:53;2.87;;;2.50;;
3197;SDS011;1611;49.394;11.136;2023-03-23T06:17:20;3.00;;;2.70;;
3197;SDS011;1611;49.394;11.136;2023-03-23T06:19:47;3.57;;;2.50;;
3197;SDS011;1611;49.394;11.136;2023-03-23T06:22:15;2.80;;;2.27;;
3197;SDS011;1611;49.394;11.136;2023-03-23T06:24:42;6.07;;;3.07;;
3197;SDS011;1611;49.394;11.136;2023-03-23T06:27:11;2.97;;;2.50;;
3197;SDS011;1611;49.394;11.136;2023-03-23T06:29:38;4.23;;;3.20;;
3197;SDS011;1611;49.394;11.136;2023-03-23T06:32:05;3.43;;;3.10;;
3197;SDS011;1611;49.394;11.136;2023-03-23T06:34:32;3.60;;;3.30;;
3197;SDS011;1611;49.394;11.136;2023-03-23T06:36:59;9.33;;;3.60;;
3197;SDS011;1611;49.394;11.136;2023-03-23T06:39:27;3.30;;;2.90;;
3197;SDS011;1611;49.394;11.136;2023-03-23T06:41:56;11.50;;;3.00;;
3197;SDS011;1611;49.394;11.136;2023-03-23T06:44:25;2.93;;;2.43;;
3197;SDS011;1611;49.394;11.136;2023-03-23T06:46:52;3.23;;;2.93;;
3197;SDS011;1611;49.394;11.136;2023-03-23T06:49:19;3.20;;;2.90;;
3197;SDS011;1611;49.394;11.136;2023-03-23T06:51:46;3.70;;;2.77;;
3197;SDS011;1611;49.394;11.136;2023-03-23T06:54:12;3.90;;;3.63;;
3197;SDS011;1611;49.394;11.136;2023-03-23T06:56:39;5.33;;;2.70;;
3197;SDS011;1611;49.394;11.136;2023-03-23T06:59:07;5.03;;;3.60;;
3197;SDS011;1611;49.394;11.136;2023-03-23T07:01:36;5.00;;;3.23;;
3197;SDS011;1611;49.394;11.136;2023-03-23T07:04:03;3.73;;;3.43;;
3197;SDS011;1611;49.394;11.136;2023-03-23T07:06:30;3.77;;;3.47;;
3197;SDS011;1611;49.394;11.136;2023-03-23T07:08:57;8.37;;;3.10;;
3197;SDS011;1611;49.394;11.136;2023-03-23T07:11:24;3.33;;;2.53;;
3197;SDS011;1611;49.394;11.136;2023-03-23T07:13:51;3.60;;;3.30;;
3197;SDS011;1611;49.394;11.136;2023-03-23T07:16:18;4.73;;;2.90;;
3197;SDS011;1611;49.394;11.136;2023-03-23T07:18:46;4.80;;;3.50;;
3197;SDS011;1611;49.394;11.136;2023-03-23T07:21:13;3.97;;;3.67;;
3197;SDS011;1611;49.394;11.136;2023-03-23T07:23:40;4.63;;;3.20;;
3197;SDS011;1611;49.394;11.136;2023-03-23T07:26:07;5.00;;;2.93;;
3197;SDS011;1611;49.394;11.136;2023-03-23T07:28:34;5.73;;;3.80;;
3197;SDS011;1611;49.394;11.136;2023-03-23T07:31:01;5.87;;;3.30;;
3197;SDS011;1611;49.394;11.136;2023-03-23T07:33:28;3.23;;;3.03;;
3197;SDS011;1611;49.394;11.136;2023-03-23T07:35:57;3.43;;;3.13;;
3197;SDS011;1611;49.394;11.136;2023-03-23T07:38:24;9.23;;;3.70;;
3197;SDS011;1611;49.394;11.136;2023-03-23T07:40:52;4.40;;;3.60;;
3197;SDS011;1611;49.394;11.136;2023-03-23T07:43:19;4.60;;;3.90;;
3197;SDS011;1611;49.394;11.136;2023-03-23T07:45:46;3.43;;;3.23;;
3197;SDS011;1611;49.394;11.136;2023-03-23T07:48:13;4.23;;;3.83;;
3197;SDS011;1611;49.394;11.136;2023-03-23T07:50:39;4.70;;;3.60;;
3197;SDS011;1611;49.394;11.136;2023-03-23T07:53:08;9.73;;;3.37;;
3197;SDS011;1611;49.394;11.136;2023-03-23T07:55:34;7.30;;;3.30;;
3197;SDS011;1611;49.394;11.136;2023-03-23T07:58:02;4.53;;;3.10;;
3197;SDS011;1611;49.394;11.136;2023-03-23T08:00:29;3.30;;;3.00;;
3197;SDS011;1611;49.394;11.136;2023-03-23T08:02:57;4.80;;;3.80;;
3197;SDS011;1611;49.394;11.136;2023-03-23T08:05:26;3.10;;;2.90;;
3197;SDS011;1611;49.394;11.136;2023-03-23T08:07:53;3.40;;;3.20;;
3197;SDS011;1611;49.394;11.136;2023-03-23T08:10:22;5.07;;;3.50;;
3197;SDS011;1611;49.394;11.136;2023-03-23T08:12:50;3.80;;;3.50;;
3197;SDS011;1611;49.394;11.136;2023-03-23T08:15:18;4.60;;;3.10;;
3197;SDS011;1611;49.394;11.136;2023-03-23T08:17:46;3.20;;;2.90;;
3197;SDS011;1611;49.394;11.136;2023-03-23T08:20:13;3.60;;;3.30;;
3197;SDS011;1611;49.394;11.136;2023-03-23T08:22:42;3.40;;;3.10;;
3197;SDS011;1611;49.394;11.136;2023-03-23T08:25:11;7.13;;;3.40;;
3197;SDS011;1611;49.394;11.136;2023-03-23T08:27:40;4.93;;;3.23;;
3197;SDS011;1611;49.394;11.136;2023-03-23T08:30:09;3.03;;;2.83;;
3197;SDS011;1611;49.394;11.136;2023-03-23T08:32:37;4.07;;;3.07;;
3197;SDS011;1611;49.394;11.136;2023-03-23T08:35:05;3.83;;;3.10;;
3197;SDS011;1611;49.394;11.136;2023-03-23T08:37:32;3.87;;;3.50;;
3197;SDS011;1611;49.394;11.136;2023-03-23T08:39:59;3.17;;;2.97;;
3197;SDS011;1611;49.394;11.136;2023-03-23T08:42:32;2.70;;;2.60;;
3197;SDS011;1611;49.394;11.136;2023-03-23T08:45:00;6.20;;;3.87;;
3197;SDS011;1611;49.394;11.136;2023-03-23T08:47:28;7.67;;;3.60;;
3197;SDS011;1611;49.394;11.136;2023-03-23T08:49:54;4.83;;;3.40;;
3197;SDS011;1611;49.394;11.136;2023-03-23T08:52:21;4.80;;;3.43;;
3197;SDS011;1611;49.394;11.136;2023-03-23T08:54:48;3.30;;;2.80;;
3197;SDS011;1611;49.394;11.136;2023-03-23T08:57:15;5.50;;;3.17;;
3197;SDS011;1611;49.394;11.136;2023-03-23T08:59:43;3.47;;;3.10;;
3197;SDS011;1611;49.394;11.136;2023-03-23T09:02:11;6.43;;;3.13;;
3197;SDS011;1611;49.394;11.136;2023-03-23T09:04:38;3.73;;;2.60;;
3197;SDS011;1611;49.394;11.136;2023-03-23T09:07:07;3.70;;;3.40;;
3197;SDS011;1611;49.394;11.136;2023-03-23T09:09:34;10.60;;;3.27;;
3197;SDS011;1611;49.394;11.136;2023-03-23T09:12:01;15.83;;;3.00;;
3197;SDS011;1611;49.394;11.136;2023-03-23T09:14:28;4.00;;;3.60;;
3197;SDS011;1611;49.394;11.136;2023-03-23T09:16:55;3.93;;;3.57;;
3197;SDS011;1611;49.394;11.136;2023-03-23T09:19:23;4.90;;;3.00;;
3197;SDS011;1611;49.394;11.136;2023-03-23T09:21:50;3.43;;;3.17;;
3197;SDS011;1611;49.394;11.136;2023-03-23T09:24:17;7.10;;;3.40;;
3197;SDS011;1611;49.394;11.136;2023-03-23T09:26:44;3.47;;;3.13;;
3197;SDS011;1611;49.394;11.136;2023-03-23T09:29:11;3.77;;;3.10;;
3197;SDS011;1611;49.394;11.136;2023-03-23T09:31:38;6.83;;;3.23;;
3197;SDS011;1611;49.394;11.136;2023-03-23T09:34:06;4.67;;;3.03;;
3197;SDS011;1611;49.394;11.136;2023-03-23T09:36:36;4.33;;;3.50;;
3197;SDS011;1611;49.394;11.136;2023-03-23T09:39:04;6.77;;;3.10;;
3197;SDS011;1611;49.394;11.136;2023-03-23T09:41:47;5.30;;;3.27;;
3197;SDS011;1611;49.394;11.136;2023-03-23T09:44:25;3.13;;;2.60;;
3197;SDS011;1611;49.394;11.136;2023-03-23T09:47:02;3.90;;;2.87;;
3197;SDS011;1611;49.394;11.136;2023-03-23T09:49:33;4.60;;;3.33;;
3197;SDS011;1611;49.394;11.136;2023-03-23T09:52:09;3.90;;;2.90;;
3197;SDS011;1611;49.394;11.136;2023-03-23T09:54:40;3.43;;;3.13;;
3197;SDS011;1611;49.394;11.136;2023-03-23T09:57:11;7.50;;;2.97;;
3197;SDS011;1611;49.394;11.136;2023-03-23T09:59:44;3.50;;;2.80;;
3197;SDS011;1611;49.394;11.136;2023-03-23T10:02:18;3.27;;;3.07;;
3197;SDS011;1611;49.394;11.136;2023-03-23T10:04:48;2.67;;;2.47;;
3197;SDS011;1611;49.394;11.136;2023-03-23T10:07:18;6.80;;;3.37;;
3197;SDS011;1611;49.394;11.136;2023-03-23T10:09:48;3.07;;;2.87;;
3197;SDS011;1611;49.394;11.136;2023-03-23T10:12:20;5.07;;;2.73;;
3197;SDS011;1611;49.394;11.136;2023-03-23T10:15:03;3.77;;;2.97;;
3197;SDS011;1611;49.394;11.136;2023-03-23T10:17:37;3.57;;;2.83;;
3197;SDS011;1611;49.394;11.136;2023-03-23T10:20:18;4.87;;;3.03;;
3197;SDS011;1611;49.394;11.136;2023-03-23T10:22:52;3.60;;;3.30;;
3197;SDS011;1611;49.394;11.136;2023-03-23T10:25:25;6.63;;;3.40;;
3197;SDS011;1611;49.394;11.136;2023-03-23T10:27:58;3.40;;;3.20;;
3197;SDS011;1611;49.394;11.136;2023-03-23T10:30:31;3.73;;;3.33;;
3197;SDS011;1611;49.394;11.136;2023-03-23T10:33:01;2.93;;;2.60;;
3197;SDS011;1611;49.394;11.136;2023-03-23T10:35:33;3.77;;;2.73;;
3197;SDS011;1611;49.394;11.136;2023-03-23T10:38:06;5.57;;;3.13;;
3197;SDS011;1611;49.394;11.136;2023-03-23T10:40:44;3.10;;;2.80;;
3197;SDS011;1611;49.394;11.136;2023-03-23T10:43:14;2.80;;;2.63;;
3197;SDS011;1611;49.394;11.136;2023-03-23T10:45:41;4.73;;;2.60;;
3197;SDS011;1611;49.394;11.136;2023-03-23T10:48:13;3.40;;;2.50;;
3197;SDS011;1611;49.394;11.136;2023-03-23T10:50:43;3.03;;;2.87;;
3197;SDS011;1611;49.394;11.136;2023-03-23T10:53:15;3.60;;;2.80;;
3197;SDS011;1611;49.394;11.136;2023-03-23T10:55:45;2.93;;;2.67;;
3197;SDS011;1611;49.394;11.136;2023-03-23T10:58:13;3.70;;;2.70;;
3197;SDS011;1611;49.394;11.136;2023-03-23T11:00:49;3.60;;;2.50;;
3197;SDS011;1611;49.394;11.136;2023-03-23T11:03:24;3.20;;;2.83;;
3197;SDS011;1611;49.394;11.136;2023-03-23T11:05:57;4.23;;;2.70;;
3197;SDS011;1611;49.394;11.136;2023-03-23T11:08:30;6.23;;;2.50;;
3197;SDS011;1611;49.394;11.136;2023-03-23T11:11:07;7.80;;;2.20;;
3197;SDS011;1611;49.394;11.136;2023-03-23T11:13:38;2.40;;;1.90;;
3197;SDS011;1611;49.394;11.136;2023-03-23T11:16:08;2.50;;;2.30;;
3197;SDS011;1611;49.394;11.136;2023-03-23T11:18:36;2.77;;;2.07;;
3197;SDS011;1611;49.394;11.136;2023-03-23T11:21:05;2.40;;;2.20;;
3197;SDS011;1611;49.394;11.136;2023-03-23T11:23:36;8.23;;;2.77;;
3197;SDS011;1611;49.394;11.136;2023-03-23T11:26:09;2.57;;;2.23;;
3197;SDS011;1611;49.394;11.136;2023-03-23T11:28:42;2.73;;;2.53;;
3197;SDS011;1611;49.394;11.136;2023-03-23T11:31:10;5.17;;;2.60;;
3197;SDS011;1611;49.394;11.136;2023-03-23T11:33:38;2.53;;;2.20;;
3197;SDS011;1611;49.394;11.136;2023-03-23T11:36:07;8.37;;;2.27;;
3197;SDS011;1611;49.394;11.136;2023-03-23T11:38:36;2.93;;;2.40;;
3197;SDS011;1611;49.394;11.136;2023-03-23T11:41:08;3.17;;;2.53;;
3197;SDS011;1611;49.394;11.136;2023-03-23T11:43:39;2.77;;;2.57;;
3197;SDS011;1611;49.394;11.136;2023-03-23T11:46:10;5.47;;;2.87;;
3197;SDS011;1611;49.394;11.136;2023-03-23T11:48:57;3.40;;;2.73;;
3197;SDS011;1611;49.394;11.136;2023-03-23T11:51:29;3.40;;;2.13;;
3197;SDS011;1611;49.394;11.136;2023-03-23T11:54:02;3.20;;;2.53;;
3197;SDS011;1611;49.394;11.136;2023-03-23T11:56:37;3.03;;;2.20;;
3197;SDS011;1611;49.394;11.136;2023-03-23T11:59:09;2.80;;;2.40;;
3197;SDS011;1611;49.394;11.136;2023-03-23T12:01:51;2.47;;;2.37;;
3197;SDS011;1611;49.394;11.136;2023-03-23T12:04:33;2.73;;;2.27;;
3197;SDS011;1611;49.394;11.136;2023-03-23T12:10:08;2.80;;;2.30;;
3197;SDS011;1611;49.394;11.136;2023-03-23T12:12:48;3.37;;;2.77;;
3197;SDS011;1611;49.394;11.136;2023-03-23T12:15:21;1.83;;;1.80;;
3197;SDS011;1611;49.394;11.136;2023-03-23T12:17:54;7.30;;;2.53;;
3197;SDS011;1611;49.394;11.136;2023-03-23T12:20:31;2.40;;;2.00;;
3197;SDS011;1611;49.394;11.136;2023-03-23T12:23:08;2.80;;;2.60;;
3197;SDS011;1611;49.394;11.136;2023-03-23T12:25:57;2.87;;;2.60;;
3197;SDS011;1611;49.394;11.136;2023-03-23T12:28:33;8.00;;;2.07;;
3197;SDS011;1611;49.394;11.136;2023-03-23T12:31:11;1.70;;;1.70;;
3197;SDS011;1611;49.394;11.136;2023-03-23T12:33:44;8.00;;;2.07;;
3197;SDS011;1611;49.394;11.136;2023-03-23T12:36:20;1.97;;;1.87;;
3197;SDS011;1611;49.394;11.136;2023-03-23T12:39:01;2.03;;;1.90;;
3197;SDS011;1611;49.394;11.136;2023-03-23T12:41:39;2.13;;;1.93;;
3197;SDS011;1611;49.394;11.136;2023-03-23T12:44:12;2.03;;;1.93;;
3197;SDS011;1611;49.394;11.136;2023-03-23T12:49:34;3.43;;;2.20;;
3197;SDS011;1611;49.394;11.136;2023-03-23T12:52:04;2.00;;;1.90;;
3197;SDS011;1611;49.394;11.136;2023-03-23T12:54:39;1.97;;;1.87;;
3197;SDS011;1611;49.394;11.136;2023-03-23T12:57:16;3.23;;;2.27;;
3197;SDS011;1611;49.394;11.136;2023-03-23T12:59:48;1.70;;;1.70;;
3197;SDS011;1611;49.394;11.136;2023-03-23T13:02:20;2.97;;;1.93;;
3197;SDS011;1611;49.394;11.136;2023-03-23T13:04:50;2.03;;;1.93;;
3197;SDS011;1611;49.394;11.136;2023-03-23T13:07:24;1.77;;;1.77;;
3197;SDS011;1611;49.394;11.136;2023-03-23T13:09:55;2.93;;;1.90;;
3197;SDS011;1611;49.394;11.136;2023-03-23T13:12:30;2.60;;;2.40;;
3197;SDS011;1611;49.394;11.136;2023-03-23T13:15:02;2.03;;;1.93;;
3197;SDS011;1611;49.394;11.136;2023-03-23T13:17:39;2.07;;;1.93;;
3197;SDS011;1611;49.394;11.136;2023-03-23T13:20:16;1.80;;;1.70;;
3197;SDS011;1611;49.394;11.136;2023-03-23T13:23:08;1.87;;;1.77;;
3197;SDS011;1611;49.394;11.136;2023-03-23T13:25:52;2.20;;;2.00;;
3197;SDS011;1611;49.394;11.136;2023-03-23T13:28:24;1.90;;;1.70;;
3197;SDS011;1611;49.394;11.136;2023-03-23T13:30:57;2.00;;;1.90;;
3197;SDS011;1611;49.394;11.136;2023-03-23T13:33:28;1.97;;;1.70;;
3197;SDS011;1611;49.394;11.136;2023-03-23T13:35:56;1.57;;;1.57;;
3197;SDS011;1611;49.394;11.136;2023-03-23T13:38:32;1.83;;;1.73;;
3197;SDS011;1611;49.394;11.136;2023-03-23T13:40:59;4.43;;;2.20;;
3197;SDS011;1611;49.394;11.136;2023-03-23T13:43:39;2.00;;;1.90;;
3197;SDS011;1611;49.394;11.136;2023-03-23T13:46:09;3.80;;;1.90;;
3197;SDS011;1611;49.394;11.136;2023-03-23T13:48:51;3.30;;;2.10;;
3197;SDS011;1611;49.394;11.136;2023-03-23T13:51:33;2.30;;;2.10;;
3197;SDS011;1611;49.394;11.136;2023-03-23T13:54:12;2.03;;;1.93;;
3197;SDS011;1611;49.394;11.136;2023-03-23T13:56:41;3.20;;;1.77;;
3197;SDS011;1611;49.394;11.136;2023-03-23T13:59:15;2.33;;;2.13;;
3197;SDS011;1611;49.394;11.136;2023-03-23T14:01:53;1.67;;;1.57;;
3197;SDS011;1611;49.394;11.136;2023-03-23T14:04:22;2.00;;;1.80;;
3197;SDS011;1611;49.394;11.136;2023-03-23T14:06:56;2.60;;;1.70;;
3197;SDS011;1611;49.394;11.136;2023-03-23T14:09:37;3.23;;;1.80;;
3197;SDS011;1611;49.394;11.136;2023-03-23T14:12:20;2.30;;;2.10;;
3197;SDS011;1611;49.394;11.136;2023-03-23T14:14:50;1.97;;;1.87;;
3197;SDS011;1611;49.394;11.136;2023-03-23T14:17:24;3.67;;;2.13;;
3197;SDS011;1611;49.394;11.136;2023-03-23T14:19:53;2.33;;;2.13;;
3197;SDS011;1611;49.394;11.136;2023-03-23T14:22:22;2.07;;;1.97;;
3197;SDS011;1611;49.394;11.136;2023-03-23T14:24:50;2.17;;;1.90;;
3197;SDS011;1611;49.394;11.136;2023-03-23T14:27:19;2.17;;;2.07;;
3197;SDS011;1611;49.394;11.136;2023-03-23T14:29:58;2.00;;;1.90;;
3197;SDS011;1611;49.394;11.136;2023-03-23T14:32:27;2.07;;;1.97;;
3197;SDS011;1611;49.394;11.136;2023-03-23T14:34:56;3.80;;;2.20;;
3197;SDS011;1611;49.394;11.136;2023-03-23T14:37:23;2.83;;;2.00;;
3197;SDS011;1611;49.394;11.136;2023-03-23T14:39:51;2.30;;;2.10;;
3197;SDS011;1611;49.394;11.136;2023-03-23T14:42:27;4.10;;;2.27;;
3197;SDS011;1611;49.394;11.136;2023-03-23T14:44:57;2.10;;;2.00;;
3197;SDS011;1611;49.394;11.136;2023-03-23T14:47:27;2.03;;;1.90;;
3197;SDS011;1611;49.394;11.136;2023-03-23T14:49:57;2.10;;;2.00;;
3197;SDS011;1611;49.394;11.136;2023-03-23T14:52:26;2.30;;;2.10;;
3197;SDS011;1611;49.394;11.136;2023-03-23T14:54:54;2.50;;;2.40;;
3197;SDS011;1611;49.394;11.136;2023-03-23T14:57:33;2.70;;;2.50;;
3197;SDS011;1611;49.394;11.136;2023-03-23T15:00:02;1.87;;;1.77;;
3197;SDS011;1611;49.394;11.136;2023-03-23T15:02:30;3.10;;;2.17;;
3197;SDS011;1611;49.394;11.136;2023-03-23T15:05:00;3.10;;;2.30;;
3197;SDS011;1611;49.394;11.136;2023-03-23T15:07:30;2.00;;;1.90;;
3197;SDS011;1611;49.394;11.136;2023-03-23T15:09:59;3.53;;;1.90;;
3197;SDS011;1611;49.394;11.136;2023-03-23T15:12:27;2.07;;;1.97;;
3197;SDS011;1611;49.394;11.136;2023-03-23T15:14:57;2.90;;;2.50;;
3197;SDS011;1611;49.394;11.136;2023-03-23T15:17:27;2.60;;;2.37;;
3197;SDS011;1611;49.394;11.136;2023-03-23T15:19:56;2.10;;;2.00;;
3197;SDS011;1611;49.394;11.136;2023-03-23T15:22:25;2.60;;;2.13;;
3197;SDS011;1611;49.394;11.136;2023-03-23T15:25:01;2.60;;;2.40;;
3197;SDS011;1611;49.394;11.136;2023-03-23T15:27:39;1.80;;;1.80;;
3197;SDS011;1611;49.394;11.136;2023-03-23T15:30:12;1.80;;;1.70;;